Latest Weather Observations for Bradshaw

IDD60801

Issued at 10:02 am CST Tuesday 23 December 2014 (issued every 30 minutes, with the page automatically refreshed every 10 minutes)

About weather observations | Map of weather stations | Latest weather observations for NT | Other Formats
Station Details ID: 014954 Name: BRADSHAW Lat: -14.94 Lon: 130.81 Height: 75.0 m
Data from the previous 72 hours. | See also: Recent months at Bradshaw
Date/Time
CST
Temp
°C
App
Temp
°C
Dew
Point
Rel
Hum
%
Delta-T
°C
Wind Press
QNH
hPa
Press
MSL
hPa
Rain
since 9 am
mm
Dir
 
Spd
km/h
Gust
km/h
Spd
kts
Gust
kts
23/10:00am 30.3 35.2 24.4 70 4.1 E 6 11 3 6 1011.0 - 0.0
23/09:30am 30.4 35.7 25.2 74 3.7 E 7 15 4 8 1011.1 - 0.0
23/09:00am 29.5 34.2 25.0 77 3.2 NE 9 15 5 8 1010.9 1010.3 28.8
23/08:30am 29.0 33.0 25.0 79 2.8 E 13 20 7 11 1010.5 - 28.8
23/08:00am 27.5 32.1 25.3 88 1.5 NNE 11 17 6 9 1010.3 - 28.8
23/07:30am 26.3 30.6 24.9 92 1.0 NE 11 17 6 9 1010.1 - 28.8
23/07:00am 26.3 30.9 24.7 91 1.1 NNE 9 13 5 7 1009.7 - 28.8
23/06:30am 25.5 31.7 24.6 95 0.6 CALM 0 4 0 2 1009.4 - 28.8
23/06:00am 25.5 31.7 24.6 95 0.6 CALM 0 0 0 0 1009.2 1008.6 28.8
23/05:30am 25.5 31.8 24.8 96 0.5 CALM 0 0 0 0 1009.2 - 28.8
23/05:00am 25.5 30.7 24.8 96 0.5 SW 6 7 3 4 1008.8 - 28.8
23/04:30am 25.6 30.7 24.9 96 0.5 SSW 7 11 4 6 1008.8 - 28.8
23/04:00am 25.6 31.9 24.7 95 0.6 CALM 0 6 0 3 1008.8 - 28.8
23/03:30am 25.6 30.5 24.6 94 0.7 SSW 7 11 4 6 1008.5 - 28.8
23/03:00am 25.8 31.1 24.9 95 0.6 SW 6 7 3 4 1008.8 1008.2 28.8
23/02:30am 25.8 30.7 24.6 93 0.8 SW 7 9 4 5 1009.2 - 28.8
23/02:00am 25.8 31.8 24.2 91 1.1 CALM 0 0 0 0 1009.5 - 28.6
23/01:30am 25.7 30.7 24.5 93 0.8 W 6 7 3 4 1010.0 - 28.6
23/01:00am 25.6 29.5 24.2 92 1.0 S 11 15 6 8 1010.0 - 28.6
23/12:30am 26.2 31.1 24.6 91 1.1 SW 7 11 4 6 1010.1 - 28.6
23/12:00am 26.4 31.2 24.2 88 1.5 E 6 11 3 6 1010.3 1009.7 28.6
 
Date/Time
CST
Temp
°C
App
Temp
°C
Dew
Point
Rel
Hum
%
Delta-T
°C
Wind Press
QNH
hPa
Press
MSL
hPa
Rain
since 9 am
mm
Dir
 
Spd
km/h
Gust
km/h
Spd
kts
Gust
kts
22/11:30pm 26.4 30.3 24.2 88 1.5 ENE 11 17 6 9 1010.3 - 28.6
22/11:00pm 26.7 30.8 24.5 88 1.5 NE 11 19 6 10 1010.4 - 28.6
22/10:30pm 27.2 30.9 24.6 86 1.8 ENE 13 24 7 13 1010.5 - 28.6
22/10:00pm 27.1 34.0 25.7 92 1.0 CALM 0 7 0 4 1010.2 - 28.6
22/09:30pm 26.8 32.1 25.8 94 0.7 NE 9 15 5 8 1009.4 - 28.6
22/09:00pm 26.6 32.3 25.9 96 0.5 NNE 7 11 4 6 1008.9 1008.3 28.6
22/08:30pm 26.6 32.3 25.9 96 0.5 E 7 11 4 6 1008.7 - 28.6
22/08:00pm 26.3 31.5 25.1 93 0.8 NE 7 11 4 6 1008.3 - 28.4
22/07:30pm 26.4 32.6 24.6 90 1.3 CALM 0 0 0 0 1008.4 - 27.8
22/07:00pm 26.7 30.7 23.8 84 2.0 E 9 13 5 7 1007.8 - 27.8
22/06:30pm 26.0 27.9 23.5 86 1.7 NNE 19 26 10 14 1006.6 - 27.6
22/06:00pm 25.0 26.8 23.2 90 1.2 NE 19 35 10 19 1006.4 1005.9 26.2
22/05:30pm 26.7 27.4 23.6 83 2.1 N 26 41 14 22 1006.9 - 3.6
22/05:00pm 30.6 32.9 23.5 66 4.9 W 17 26 9 14 1005.5 - 1.0
22/04:30pm 29.9 30.0 21.8 62 5.5 W 24 37 13 20 1004.5 - 1.0
22/04:04pm 29.0 28.7 22.5 68 4.4 NW 28 46 15 25 1005.1 - 0.8
22/04:00pm 31.7 31.9 22.1 56 6.5 NW 24 39 13 21 1005.2 - 0.6
22/03:30pm 35.9 39.6 22.5 46 9.3 NNE 7 11 4 6 1005.2 - 0.6
22/03:00pm 35.1 39.8 25.0 56 7.2 NE 9 15 5 8 1006.0 1005.5 0.6
22/02:30pm 32.7 36.6 26.0 68 4.8 ESE 17 20 9 11 1006.6 - 0.6
22/02:12pm 30.9 30.7 22.8 62 5.6 NNE 28 44 15 24 1006.9 - 0.0
22/02:00pm 36.4 39.8 23.3 47 9.2 S 11 17 6 9 1007.1 - 0.0
22/01:30pm 36.2 40.5 22.7 45 9.4 SW 4 13 2 7 1007.5 - 0.0
22/01:00pm 36.6 40.4 23.4 46 9.2 NNW 9 15 5 8 1008.1 - 0.0
22/12:30pm 35.1 38.3 23.1 49 8.3 NNW 11 19 6 10 1008.4 - 0.0
22/12:00pm 34.9 38.8 23.6 52 7.9 NE 9 15 5 8 1008.9 1008.3 0.0
22/11:30am 33.4 37.0 23.1 54 7.1 NNW 9 13 5 7 1009.3 - 0.0
22/11:00am 33.3 36.8 24.2 59 6.4 NNE 13 20 7 11 1009.7 - 0.0
22/10:30am 32.1 35.4 23.9 62 5.7 NE 13 22 7 12 1010.1 - 0.0
22/10:00am 31.0 34.1 23.6 64 5.1 NNE 13 17 7 9 1010.3 - 0.0
22/09:30am 28.7 31.4 22.9 71 4.0 N 13 17 7 9 1010.2 - 0.0
22/09:00am 28.2 30.8 22.7 72 3.7 NNE 13 19 7 10 1010.0 1009.4 5.2
22/08:30am 27.3 29.9 22.7 76 3.1 NNE 13 17 7 9 1009.9 - 5.2
22/08:00am 26.5 28.9 22.3 78 2.8 N 13 19 7 10 1009.5 - 5.2
22/07:30am 26.1 29.1 22.6 81 2.4 N 11 15 6 8 1009.2 - 5.2
22/07:00am 25.7 28.7 22.0 80 2.5 N 9 17 5 9 1009.0 - 5.2
22/06:30am 25.6 27.8 21.9 80 2.5 N 13 17 7 9 1008.4 - 5.2
22/06:00am 25.5 28.9 22.0 81 2.3 N 7 9 4 5 1008.1 1007.5 5.2
22/05:30am 25.7 28.6 21.8 79 2.6 NNE 9 11 5 6 1008.0 - 5.2
22/05:00am 25.8 28.7 21.7 78 2.7 NNE 9 13 5 7 1008.0 - 5.2
22/04:30am 26.0 29.3 21.9 78 2.7 N 7 11 4 6 1007.9 - 5.2
22/04:00am 25.9 29.2 21.8 78 2.7 NE 7 11 4 6 1008.4 - 5.2
22/03:30am 26.0 29.2 21.7 77 2.9 ENE 7 11 4 6 1009.0 - 5.2
22/03:00am 26.3 28.3 20.8 71 3.6 ESE 11 17 6 9 1009.0 1008.4 5.2
22/02:30am 26.4 29.6 22.3 78 2.8 SE 9 13 5 7 1009.3 - 5.2
22/02:00am 27.0 28.9 22.8 78 2.9 SE 17 24 9 13 1009.7 - 5.2
22/01:30am 27.2 29.7 23.2 79 2.7 SE 15 20 8 11 1009.8 - 5.2
22/01:00am 27.5 29.7 23.3 78 2.9 SE 17 24 9 13 1009.9 - 5.2
22/12:30am 27.7 32.3 25.3 87 1.7 SSE 11 15 6 8 1010.2 - 5.2
22/12:00am 27.4 33.6 25.2 88 1.5 S 2 7 1 4 1010.2 1009.6 5.2
 
Date/Time
CST
Temp
°C
App
Temp
°C
Dew
Point
Rel
Hum
%
Delta-T
°C
Wind Press
QNH
hPa
Press
MSL
hPa
Rain
since 9 am
mm
Dir
 
Spd
km/h
Gust
km/h
Spd
kts
Gust
kts
21/11:30pm 27.8 34.4 25.2 86 1.8 CALM 0 0 0 0 1010.3 - 5.2
21/11:00pm 27.7 33.8 24.5 83 2.2 CALM 0 0 0 0 1010.5 - 5.2
21/10:30pm 27.6 33.4 24.0 81 2.5 CALM 0 6 0 3 1009.9 - 5.2
21/10:00pm 27.5 32.9 24.5 84 2.1 SE 4 7 2 4 1008.9 - 5.2
21/09:30pm 27.4 33.5 24.5 84 2.0 CALM 0 4 0 2 1008.6 - 5.2
21/09:00pm 27.3 32.4 24.6 85 1.9 WNW 6 7 3 4 1008.5 1007.9 5.2
21/08:30pm 27.4 32.3 24.3 83 2.2 SSE 6 7 3 4 1008.4 - 5.2
21/08:00pm 27.2 31.6 23.4 80 2.6 E 6 9 3 5 1007.8 - 5.2
21/07:30pm 27.8 32.8 23.8 79 2.8 S 4 15 2 8 1007.4 - 5.2
21/07:00pm 27.5 30.7 23.1 77 3.0 WSW 11 17 6 9 1007.1 - 5.2
21/06:30pm 27.4 30.7 24.5 84 2.0 SW 15 30 8 16 1007.3 - 5.2
21/06:00pm 28.2 32.3 24.6 81 2.5 SSE 11 17 6 9 1006.3 1005.8 5.2
21/05:30pm 29.4 28.8 23.3 69 4.2 E 32 46 17 25 1005.5 - 5.2
21/05:28pm 30.6 30.6 23.8 67 4.7 E 30 44 16 24 1005.6 - 5.2
21/05:00pm 31.3 34.7 24.7 68 4.6 WSW 15 22 8 12 1004.1 - 5.2
21/04:42pm 32.6 34.9 24.4 62 5.8 NW 20 33 11 18 1004.3 - 2.4
21/04:30pm 37.6 39.0 23.6 44 9.8 WNW 22 33 12 18 1004.0 - 0.2
21/04:00pm 38.6 40.3 21.7 37 11.6 WNW 15 24 8 13 1004.4 - 0.2
21/03:30pm 38.7 41.2 21.8 37 11.7 NNW 11 24 6 13 1004.7 - 0.2
21/03:00pm 38.6 41.7 22.2 39 11.4 NW 9 20 5 11 1005.3 1004.8 0.2
21/02:30pm 37.7 41.0 21.8 40 10.9 NNE 7 11 4 6 1005.7 - 0.2
21/02:00pm 36.3 39.3 21.3 41 10.2 NE 7 15 4 8 1006.5 - 0.2
21/01:30pm 36.6 39.6 22.0 43 10.1 WNW 9 15 5 8 1007.5 - 0.2
21/01:00pm 36.3 40.0 22.5 45 9.6 N 7 11 4 6 1008.4 - 0.2
21/12:30pm 35.7 39.0 22.6 46 9.1 W 9 19 5 10 1008.9 - 0.2
21/12:00pm 35.4 39.3 23.0 48 8.6 E 7 11 4 6 1009.3 1008.7 0.2
21/11:30am 34.6 38.5 22.6 49 8.3 NE 6 15 3 8 1009.8 - 0.2
21/11:00am 34.3 38.4 23.3 52 7.7 W 7 11 4 6 1010.1 - 0.2
21/10:30am 32.2 36.6 23.4 59 6.1 N 6 11 3 6 1010.4 - 0.0
21/10:00am 31.2 34.9 23.3 63 5.5 N 9 13 5 7 1010.5 - 0.0
21/09:30am 31.0 34.9 23.6 64 5.1 N 9 13 5 7 1010.6 - 0.0
21/09:00am 31.1 34.9 23.5 64 5.3 N 9 17 5 9 1010.6 1010.0 0.0
21/08:30am 29.3 32.8 23.5 71 4.0 NNW 11 15 6 8 1010.3 - 0.0
21/08:00am 28.3 32.4 23.2 74 3.5 NNW 7 11 4 6 1010.1 - 0.0
21/07:30am 27.9 32.1 23.5 77 3.0 NW 7 9 4 5 1009.9 - 0.0
21/07:00am 27.5 30.7 23.1 77 3.0 NNW 11 15 6 8 1009.4 - 0.0
21/06:30am 27.1 29.8 22.9 78 2.9 N 13 20 7 11 1008.8 - 0.0
21/06:00am 27.3 30.7 22.7 76 3.1 NNE 9 13 5 7 1008.6 1008.0 0.0
21/05:30am 27.2 31.1 23.0 78 2.9 N 7 9 4 5 1008.9 - 0.0
21/05:00am 26.9 28.6 23.4 81 2.4 ENE 20 30 11 16 1008.6 - 0.0
21/04:30am 26.5 31.9 23.2 82 2.3 CALM 0 0 0 0 1007.9 - 0.0
21/04:00am 26.5 30.5 22.8 80 2.5 NNW 6 7 3 4 1007.6 - 0.0
21/03:30am 26.4 32.0 23.5 84 2.0 CALM 0 0 0 0 1007.5 - 0.0
21/03:00am 26.3 30.7 23.4 84 2.0 NE 6 9 3 5 1007.7 1007.1 0.0
21/02:30am 26.0 31.2 22.9 83 2.1 CALM 0 6 0 3 1007.6 - 0.0
21/02:00am 25.8 29.3 22.9 84 2.0 NNW 9 13 5 7 1007.9 - 0.0
21/01:30am 26.1 29.1 22.6 81 2.4 NNW 11 15 6 8 1008.0 - 0.0
21/01:00am 26.3 29.8 22.8 81 2.4 NNW 9 13 5 7 1008.4 - 0.0
21/12:30am 26.2 29.1 22.5 80 2.5 N 11 17 6 9 1009.1 - 0.0
21/12:00am 26.7 29.4 22.8 79 2.7 N 13 22 7 12 1009.5 1008.9 0.0
 
Date/Time
CST
Temp
°C
App
Temp
°C
Dew
Point
Rel
Hum
%
Delta-T
°C
Wind Press
QNH
hPa
Press
MSL
hPa
Rain
since 9 am
mm
Dir
 
Spd
km/h
Gust
km/h
Spd
kts
Gust
kts
20/11:30pm 27.6 33.3 23.8 80 2.6 CALM 0 0 0 0 1009.4 - 0.0
20/11:00pm 27.7 33.6 24.1 81 2.5 CALM 0 6 0 3 1009.4 - 0.0
20/10:30pm 27.4 31.8 23.4 79 2.7 SSE 6 11 3 6 1009.3 - 0.0
20/10:00pm 27.4 32.8 23.2 78 2.9 CALM 0 6 0 3 1008.9 - 0.0
20/09:30pm 27.0 28.6 23.3 80 2.5 NW 20 32 11 17 1008.5 - 0.0
20/09:00pm 28.6 29.1 23.3 73 3.6 NNW 26 41 14 22 1008.9 1008.3 0.0
20/08:30pm 28.8 29.6 23.2 71 3.8 N 24 37 13 20 1008.4 - 0.0
20/08:00pm 30.1 32.6 21.7 60 5.7 SSW 11 19 6 10 1007.5 - 0.0
20/07:30pm 30.8 28.7 21.0 56 6.6 E 33 50 18 27 1007.2 - 0.0
20/07:15pm 32.6 30.6 21.8 53 7.3 E 35 56 19 30 1006.7 - 0.0
20/07:14pm 33.3 31.8 22.1 52 7.7 E 33 44 18 24 1006.9 - 0.0
20/07:00pm 35.5 39.3 22.8 47 8.8 ENE 7 11 4 6 1006.2 - 0.0
20/06:30pm 36.0 38.5 22.5 45 9.3 ESE 13 19 7 10 1005.0 - 0.0
20/06:00pm 36.7 38.1 18.7 34 11.9 SE 9 17 5 9 1005.0 1004.5 0.0
20/05:30pm 36.8 39.2 22.2 43 10.1 S 13 30 7 16 1005.1 - 0.0
20/05:00pm 37.9 41.7 22.8 42 10.5 SE 7 11 4 6 1004.7 - 0.0
20/04:30pm 37.1 40.3 21.6 40 10.6 NE 7 13 4 7 1004.9 - 0.0
20/04:00pm 37.7 41.6 22.6 42 10.5 ESE 6 15 3 8 1005.2 - 0.0
20/03:30pm 37.1 40.1 22.0 41 10.4 ENE 9 15 5 8 1005.8 - 0.0
20/03:00pm 36.2 39.1 22.4 45 9.6 S 11 15 6 8 1006.3 1005.8 0.0
20/02:30pm 36.8 39.5 22.2 43 10.1 ESE 11 17 6 9 1007.1 - 0.0
20/02:00pm 36.0 39.1 22.2 45 9.5 SSE 9 15 5 8 1007.8 - 0.0
20/01:30pm 35.5 38.6 22.1 45 9.2 ESE 9 17 5 9 1008.4 - 0.0
20/01:00pm 34.2 36.4 22.6 50 8.0 SE 15 20 8 11 1008.9 - 0.0
20/12:30pm 35.7 37.8 23.7 50 8.4 ENE 19 20 10 11 1009.3 - 0.0
20/12:00pm 35.0 39.3 24.3 54 7.6 SSE 9 17 5 9 1010.0 1009.4 0.0
20/11:30am 33.4 37.0 23.1 54 7.1 S 9 15 5 8 1010.6 - 0.0
20/11:00am 32.2 36.1 22.6 57 6.6 S 6 11 3 6 1011.3 - 0.0
20/10:30am 32.4 37.3 23.1 58 6.4 SSE 2 9 1 5 1011.5 - 0.0

Other Formats:

Comma delimited format used in spreadsheet applications
http://www.bom.gov.au/fwo/IDD60801/IDD60801.94130.axf

JavaScript Object Notation format (JSON) in row-major order
http://www.bom.gov.au/fwo/IDD60801/IDD60801.94130.json